sensor_id;sensor_type;location;lat;lon;timestamp;pressure;altitude;pressure_sealevel;temperature;humidity
78016;BME280;67223;51.102;5.882;2023-12-20T00:02:07;100832.66;;;7.85;100.00
78016;BME280;67223;51.102;5.882;2023-12-20T00:04:33;100843.00;;;7.77;100.00
78016;BME280;67223;51.102;5.882;2023-12-20T00:06:58;100852.25;;;7.71;100.00
78016;BME280;67223;51.102;5.882;2023-12-20T00:09:23;100859.13;;;7.74;100.00
78016;BME280;67223;51.102;5.882;2023-12-20T00:11:49;100870.63;;;7.62;100.00
78016;BME280;67223;51.102;5.882;2023-12-20T00:14:14;100870.91;;;7.57;100.00
78016;BME280;67223;51.102;5.882;2023-12-20T00:16:40;100864.44;;;7.49;100.00
78016;BME280;67223;51.102;5.882;2023-12-20T00:19:05;100872.72;;;7.44;100.00
78016;BME280;67223;51.102;5.882;2023-12-20T00:21:30;100881.84;;;7.40;100.00
78016;BME280;67223;51.102;5.882;2023-12-20T00:23:56;100883.63;;;7.27;100.00
78016;BME280;67223;51.102;5.882;2023-12-20T00:26:21;100889.13;;;7.24;100.00
78016;BME280;67223;51.102;5.882;2023-12-20T00:28:46;100896.88;;;7.14;100.00
78016;BME280;67223;51.102;5.882;2023-12-20T00:31:12;100901.72;;;7.08;100.00
78016;BME280;67223;51.102;5.882;2023-12-20T00:33:37;100922.13;;;7.07;100.00
78016;BME280;67223;51.102;5.882;2023-12-20T00:36:05;100920.22;;;7.09;100.00
78016;BME280;67223;51.102;5.882;2023-12-20T00:38:30;100928.44;;;6.92;100.00
78016;BME280;67223;51.102;5.882;2023-12-20T00:40:56;100956.97;;;6.88;100.00
78016;BME280;67223;51.102;5.882;2023-12-20T00:43:21;100957.09;;;6.87;100.00
78016;BME280;67223;51.102;5.882;2023-12-20T00:45:46;100957.28;;;6.84;100.00
78016;BME280;67223;51.102;5.882;2023-12-20T00:48:12;100963.09;;;6.76;100.00
78016;BME280;67223;51.102;5.882;2023-12-20T00:50:37;100974.84;;;6.72;100.00
78016;BME280;67223;51.102;5.882;2023-12-20T00:53:03;100986.19;;;6.74;100.00
78016;BME280;67223;51.102;5.882;2023-12-20T00:55:28;100989.06;;;6.71;100.00
78016;BME280;67223;51.102;5.882;2023-12-20T00:57:54;101005.16;;;6.68;100.00
78016;BME280;67223;51.102;5.882;2023-12-20T01:00:19;101013.59;;;6.61;100.00
78016;BME280;67223;51.102;5.882;2023-12-20T01:02:45;101010.09;;;6.60;100.00
78016;BME280;67223;51.102;5.882;2023-12-20T01:05:11;101009.53;;;6.55;100.00
78016;BME280;67223;51.102;5.882;2023-12-20T01:07:37;101022.78;;;6.55;100.00
78016;BME280;67223;51.102;5.882;2023-12-20T01:10:03;101027.91;;;6.58;100.00
78016;BME280;67223;51.102;5.882;2023-12-20T01:12:28;101027.72;;;6.47;100.00
78016;BME280;67223;51.102;5.882;2023-12-20T01:14:53;101024.78;;;6.52;100.00
78016;BME280;67223;51.102;5.882;2023-12-20T01:17:19;101024.09;;;6.48;100.00
78016;BME280;67223;51.102;5.882;2023-12-20T01:19:44;101030.66;;;6.42;100.00
78016;BME280;67223;51.102;5.882;2023-12-20T01:22:09;101029.59;;;6.45;100.00
78016;BME280;67223;51.102;5.882;2023-12-20T01:24:35;101036.91;;;6.41;100.00
78016;BME280;67223;51.102;5.882;2023-12-20T01:27:00;101033.19;;;6.44;100.00
78016;BME280;67223;51.102;5.882;2023-12-20T01:29:26;101040.00;;;6.34;100.00
78016;BME280;67223;51.102;5.882;2023-12-20T01:31:51;101045.72;;;6.42;100.00
78016;BME280;67223;51.102;5.882;2023-12-20T01:34:17;101045.31;;;6.48;100.00
78016;BME280;67223;51.102;5.882;2023-12-20T01:36:42;101046.66;;;6.41;100.00
78016;BME280;67223;51.102;5.882;2023-12-20T01:39:08;101053.09;;;6.37;100.00
78016;BME280;67223;51.102;5.882;2023-12-20T01:41:33;101058.41;;;6.37;100.00
78016;BME280;67223;51.102;5.882;2023-12-20T01:43:59;101063.13;;;6.32;100.00
78016;BME280;67223;51.102;5.882;2023-12-20T01:46:24;101060.84;;;6.26;100.00
78016;BME280;67223;51.102;5.882;2023-12-20T01:48:51;101059.50;;;6.19;100.00
78016;BME280;67223;51.102;5.882;2023-12-20T01:51:17;101063.94;;;6.18;100.00
78016;BME280;67223;51.102;5.882;2023-12-20T01:53:42;101068.09;;;6.08;100.00
78016;BME280;67223;51.102;5.882;2023-12-20T01:56:09;101064.59;;;6.08;100.00
78016;BME280;67223;51.102;5.882;2023-12-20T01:58:39;101076.50;;;6.00;100.00
78016;BME280;67223;51.102;5.882;2023-12-20T02:01:07;101080.28;;;5.96;100.00
78016;BME280;67223;51.102;5.882;2023-12-20T02:03:33;101082.22;;;5.93;100.00
78016;BME280;67223;51.102;5.882;2023-12-20T02:05:59;101079.69;;;5.91;100.00
78016;BME280;67223;51.102;5.882;2023-12-20T02:08:25;101094.53;;;5.78;100.00
78016;BME280;67223;51.102;5.882;2023-12-20T02:10:50;101089.09;;;5.81;100.00
78016;BME280;67223;51.102;5.882;2023-12-20T02:13:16;101099.41;;;5.86;100.00
78016;BME280;67223;51.102;5.882;2023-12-20T02:15:41;101090.38;;;5.90;100.00
78016;BME280;67223;51.102;5.882;2023-12-20T02:18:08;101090.03;;;5.80;100.00
78016;BME280;67223;51.102;5.882;2023-12-20T02:20:34;101086.50;;;5.80;100.00
78016;BME280;67223;51.102;5.882;2023-12-20T02:22:59;101094.13;;;5.70;100.00
78016;BME280;67223;51.102;5.882;2023-12-20T02:25:24;101103.19;;;5.82;100.00
78016;BME280;67223;51.102;5.882;2023-12-20T02:27:50;101088.50;;;5.76;100.00
78016;BME280;67223;51.102;5.882;2023-12-20T02:30:15;101091.22;;;5.75;100.00
78016;BME280;67223;51.102;5.882;2023-12-20T02:32:41;101094.81;;;5.74;100.00
78016;BME280;67223;51.102;5.882;2023-12-20T02:35:06;101084.13;;;5.75;100.00
78016;BME280;67223;51.102;5.882;2023-12-20T02:37:35;101093.78;;;5.76;100.00
78016;BME280;67223;51.102;5.882;2023-12-20T02:40:00;101092.09;;;5.75;100.00
78016;BME280;67223;51.102;5.882;2023-12-20T02:42:26;101092.75;;;5.79;100.00
78016;BME280;67223;51.102;5.882;2023-12-20T02:44:51;101091.22;;;5.75;100.00
78016;BME280;67223;51.102;5.882;2023-12-20T02:47:16;101091.81;;;5.80;100.00
78016;BME280;67223;51.102;5.882;2023-12-20T02:49:42;101088.03;;;5.84;100.00
78016;BME280;67223;51.102;5.882;2023-12-20T02:52:07;101085.56;;;5.81;100.00
78016;BME280;67223;51.102;5.882;2023-12-20T02:54:33;101091.88;;;5.78;100.00
78016;BME280;67223;51.102;5.882;2023-12-20T02:56:58;101094.53;;;5.78;100.00
78016;BME280;67223;51.102;5.882;2023-12-20T02:59:23;101085.50;;;5.82;100.00
78016;BME280;67223;51.102;5.882;2023-12-20T03:01:49;101085.66;;;5.79;100.00
78016;BME280;67223;51.102;5.882;2023-12-20T03:04:14;101083.50;;;5.86;100.00
78016;BME280;67223;51.102;5.882;2023-12-20T03:06:40;101082.66;;;5.85;100.00
78016;BME280;67223;51.102;5.882;2023-12-20T03:09:05;101075.84;;;5.81;100.00
78016;BME280;67223;51.102;5.882;2023-12-20T03:11:30;101075.16;;;5.78;100.00
78016;BME280;67223;51.102;5.882;2023-12-20T03:13:56;101083.34;;;5.73;100.00
78016;BME280;67223;51.102;5.882;2023-12-20T03:16:23;101077.97;;;5.75;100.00
78016;BME280;67223;51.102;5.882;2023-12-20T03:18:48;101079.19;;;5.69;100.00
78016;BME280;67223;51.102;5.882;2023-12-20T03:21:14;101075.91;;;5.95;100.00
78016;BME280;67223;51.102;5.882;2023-12-20T03:23:40;101081.47;;;5.75;100.00
78016;BME280;67223;51.102;5.882;2023-12-20T03:26:08;101077.47;;;5.68;100.00
78016;BME280;67223;51.102;5.882;2023-12-20T03:28:34;101080.81;;;5.72;100.00
78016;BME280;67223;51.102;5.882;2023-12-20T03:31:01;101078.63;;;5.78;100.00
78016;BME280;67223;51.102;5.882;2023-12-20T03:33:27;101072.94;;;5.70;100.00
78016;BME280;67223;51.102;5.882;2023-12-20T03:35:52;101072.16;;;5.68;100.00
78016;BME280;67223;51.102;5.882;2023-12-20T03:38:18;101076.78;;;5.64;100.00
78016;BME280;67223;51.102;5.882;2023-12-20T03:40:43;101073.63;;;5.89;100.00
78016;BME280;67223;51.102;5.882;2023-12-20T03:43:09;101077.81;;;5.78;100.00
78016;BME280;67223;51.102;5.882;2023-12-20T03:45:34;101084.91;;;5.77;100.00
78016;BME280;67223;51.102;5.882;2023-12-20T03:47:59;101081.41;;;5.77;100.00
78016;BME280;67223;51.102;5.882;2023-12-20T03:50:26;101085.06;;;5.74;100.00
78016;BME280;67223;51.102;5.882;2023-12-20T03:52:51;101071.66;;;5.77;100.00
78016;BME280;67223;51.102;5.882;2023-12-20T03:55:17;101083.88;;;5.64;100.00
78016;BME280;67223;51.102;5.882;2023-12-20T03:57:43;101075.94;;;5.64;100.00
78016;BME280;67223;51.102;5.882;2023-12-20T04:00:08;101081.56;;;5.58;100.00
78016;BME280;67223;51.102;5.882;2023-12-20T04:05:12;101066.47;;;5.60;100.00
78016;BME280;67223;51.102;5.882;2023-12-20T04:07:38;101060.97;;;5.63;100.00
78016;BME280;67223;51.102;5.882;2023-12-20T04:10:04;101064.06;;;5.55;100.00
78016;BME280;67223;51.102;5.882;2023-12-20T04:12:30;101078.34;;;5.53;100.00
78016;BME280;67223;51.102;5.882;2023-12-20T04:14:56;101073.47;;;5.61;100.00
78016;BME280;67223;51.102;5.882;2023-12-20T04:17:22;101080.03;;;5.54;100.00
78016;BME280;67223;51.102;5.882;2023-12-20T04:19:50;101076.97;;;5.61;100.00
78016;BME280;67223;51.102;5.882;2023-12-20T04:22:19;101078.00;;;5.59;100.00
78016;BME280;67223;51.102;5.882;2023-12-20T04:24:45;101071.94;;;5.73;100.00
78016;BME280;67223;51.102;5.882;2023-12-20T04:27:10;101075.34;;;5.59;100.00
78016;BME280;67223;51.102;5.882;2023-12-20T04:29:36;101083.88;;;5.64;100.00
78016;BME280;67223;51.102;5.882;2023-12-20T04:32:02;101088.50;;;5.60;100.00
78016;BME280;67223;51.102;5.882;2023-12-20T04:34:27;101086.53;;;5.64;100.00
78016;BME280;67223;51.102;5.882;2023-12-20T04:36:53;101082.09;;;5.64;100.00
78016;BME280;67223;51.102;5.882;2023-12-20T04:39:19;101078.44;;;5.67;100.00
78016;BME280;67223;51.102;5.882;2023-12-20T04:41:44;101082.53;;;5.73;100.00
78016;BME280;67223;51.102;5.882;2023-12-20T04:44:09;101084.47;;;5.69;100.00
78016;BME280;67223;51.102;5.882;2023-12-20T04:46:35;101078.59;;;5.64;100.00
78016;BME280;67223;51.102;5.882;2023-12-20T04:49:01;101071.94;;;5.73;100.00
78016;BME280;67223;51.102;5.882;2023-12-20T04:51:26;101076.72;;;5.66;100.00
78016;BME280;67223;51.102;5.882;2023-12-20T04:53:51;101078.16;;;5.72;100.00
78016;BME280;67223;51.102;5.882;2023-12-20T04:56:17;101080.97;;;5.69;100.00
78016;BME280;67223;51.102;5.882;2023-12-20T04:58:42;101081.56;;;5.74;100.00
78016;BME280;67223;51.102;5.882;2023-12-20T05:01:08;101073.72;;;5.72;100.00
78016;BME280;67223;51.102;5.882;2023-12-20T05:03:34;101075.59;;;5.70;100.00
78016;BME280;67223;51.102;5.882;2023-12-20T05:05:59;101084.41;;;5.71;100.00
78016;BME280;67223;51.102;5.882;2023-12-20T05:08:25;101077.13;;;5.74;100.00
78016;BME280;67223;51.102;5.882;2023-12-20T05:10:51;101073.44;;;5.77;100.00
78016;BME280;67223;51.102;5.882;2023-12-20T05:13:17;101067.44;;;5.73;100.00
78016;BME280;67223;51.102;5.882;2023-12-20T05:15:42;101068.63;;;5.83;100.00
78016;BME280;67223;51.102;5.882;2023-12-20T05:18:07;101063.94;;;5.88;100.00
78016;BME280;67223;51.102;5.882;2023-12-20T05:20:33;101057.09;;;5.84;100.00
78016;BME280;67223;51.102;5.882;2023-12-20T05:22:58;101044.91;;;5.82;100.00
78016;BME280;67223;51.102;5.882;2023-12-20T05:25:23;101044.91;;;5.82;100.00
78016;BME280;67223;51.102;5.882;2023-12-20T05:27:49;101055.50;;;5.82;100.00
78016;BME280;67223;51.102;5.882;2023-12-20T05:30:14;101054.63;;;5.81;100.00
78016;BME280;67223;51.102;5.882;2023-12-20T05:32:39;101057.88;;;5.86;100.00
78016;BME280;67223;51.102;5.882;2023-12-20T05:35:05;101059.94;;;5.97;100.00
78016;BME280;67223;51.102;5.882;2023-12-20T05:37:30;101052.44;;;6.03;100.00
78016;BME280;67223;51.102;5.882;2023-12-20T05:39:56;101047.19;;;6.18;100.00
78016;BME280;67223;51.102;5.882;2023-12-20T05:42:21;101038.69;;;6.27;100.00
78016;BME280;67223;51.102;5.882;2023-12-20T05:44:47;101035.59;;;6.04;100.00
78016;BME280;67223;51.102;5.882;2023-12-20T05:47:12;101048.13;;;6.02;100.00
78016;BME280;67223;51.102;5.882;2023-12-20T05:49:37;101053.28;;;5.74;100.00
78016;BME280;67223;51.102;5.882;2023-12-20T05:52:03;101045.16;;;5.77;100.00
78016;BME280;67223;51.102;5.882;2023-12-20T05:54:28;101047.63;;;5.80;100.00
78016;BME280;67223;51.102;5.882;2023-12-20T05:56:54;101031.13;;;6.63;100.00
78016;BME280;67223;51.102;5.882;2023-12-20T05:59:20;100964.06;;;11.01;100.00
78016;BME280;67223;51.102;5.882;2023-12-20T06:01:45;100949.50;;;11.69;100.00
78016;BME280;67223;51.102;5.882;2023-12-20T06:04:11;101011.06;;;10.26;100.00
78016;BME280;67223;51.102;5.882;2023-12-20T06:06:43;101013.16;;;11.54;100.00
78016;BME280;67223;51.102;5.882;2023-12-20T06:09:08;101008.31;;;12.63;100.00
78016;BME280;67223;51.102;5.882;2023-12-20T06:11:34;101133.72;;;12.90;100.00
78016;BME280;67223;51.102;5.882;2023-12-20T06:13:59;101168.34;;;12.82;100.00
78016;BME280;67223;51.102;5.882;2023-12-20T06:16:24;101190.28;;;13.38;100.00
78016;BME280;67223;51.102;5.882;2023-12-20T06:18:50;101221.47;;;13.29;100.00
78016;BME280;67223;51.102;5.882;2023-12-20T06:21:15;101246.19;;;13.63;100.00
78016;BME280;67223;51.102;5.882;2023-12-20T06:23:41;101281.28;;;13.30;100.00
78016;BME280;67223;51.102;5.882;2023-12-20T06:26:06;101288.69;;;13.58;100.00
78016;BME280;67223;51.102;5.882;2023-12-20T06:28:32;101299.69;;;13.34;100.00
78016;BME280;67223;51.102;5.882;2023-12-20T06:30:57;101317.97;;;13.09;100.00
78016;BME280;67223;51.102;5.882;2023-12-20T06:33:23;101311.81;;;13.50;100.00
78016;BME280;67223;51.102;5.882;2023-12-20T06:35:49;101323.44;;;13.39;100.00
78016;BME280;67223;51.102;5.882;2023-12-20T06:38:15;101321.88;;;13.57;100.00
78016;BME280;67223;51.102;5.882;2023-12-20T06:40:40;101340.97;;;13.22;100.00
78016;BME280;67223;51.102;5.882;2023-12-20T06:43:05;101337.38;;;13.54;100.00
78016;BME280;67223;51.102;5.882;2023-12-20T06:45:32;101368.75;;;13.21;100.00
78016;BME280;67223;51.102;5.882;2023-12-20T06:47:57;101363.59;;;13.50;100.00
78016;BME280;67223;51.102;5.882;2023-12-20T06:50:23;101373.97;;;13.55;100.00
78016;BME280;67223;51.102;5.882;2023-12-20T06:52:49;101376.72;;;13.64;100.00
78016;BME280;67223;51.102;5.882;2023-12-20T06:55:14;101369.56;;;13.33;100.00
78016;BME280;67223;51.102;5.882;2023-12-20T06:57:39;101376.66;;;13.55;100.00
78016;BME280;67223;51.102;5.882;2023-12-20T07:00:06;101379.66;;;13.61;100.00
78016;BME280;67223;51.102;5.882;2023-12-20T07:02:31;101379.84;;;13.28;100.00
78016;BME280;67223;51.102;5.882;2023-12-20T07:04:57;101379.13;;;13.47;100.00
78016;BME280;67223;51.102;5.882;2023-12-20T07:07:22;101375.81;;;13.54;100.00
78016;BME280;67223;51.102;5.882;2023-12-20T07:09:49;101389.13;;;13.24;100.00
78016;BME280;67223;51.102;5.882;2023-12-20T07:12:15;101386.38;;;13.35;100.00
78016;BME280;67223;51.102;5.882;2023-12-20T07:14:40;101387.44;;;13.44;100.00
78016;BME280;67223;51.102;5.882;2023-12-20T07:17:06;101395.84;;;12.53;100.00
78016;BME280;67223;51.102;5.882;2023-12-20T07:19:37;101397.06;;;11.82;100.00
78016;BME280;67223;51.102;5.882;2023-12-20T07:22:03;101375.91;;;12.13;100.00
78016;BME280;67223;51.102;5.882;2023-12-20T07:24:28;101385.53;;;13.34;100.00
78016;BME280;67223;51.102;5.882;2023-12-20T07:26:54;101384.09;;;13.51;100.00
78016;BME280;67223;51.102;5.882;2023-12-20T07:29:19;101398.41;;;13.20;100.00
78016;BME280;67223;51.102;5.882;2023-12-20T07:31:44;101399.78;;;13.35;100.00
78016;BME280;67223;51.102;5.882;2023-12-20T07:34:10;101400.94;;;13.10;100.00
78016;BME280;67223;51.102;5.882;2023-12-20T07:36:35;101397.44;;;13.10;100.00
78016;BME280;67223;51.102;5.882;2023-12-20T07:39:01;101408.78;;;13.13;100.00
78016;BME280;67223;51.102;5.882;2023-12-20T07:41:26;101409.22;;;13.50;100.00
78016;BME280;67223;51.102;5.882;2023-12-20T07:43:51;101415.41;;;13.62;100.00
78016;BME280;67223;51.102;5.882;2023-12-20T07:46:18;101417.53;;;13.47;100.00
78016;BME280;67223;51.102;5.882;2023-12-20T07:48:47;101420.34;;;13.46;100.00
78016;BME280;67223;51.102;5.882;2023-12-20T07:51:13;101422.75;;;13.28;100.00
78016;BME280;67223;51.102;5.882;2023-12-20T07:53:38;101425.88;;;13.44;100.00
78016;BME280;67223;51.102;5.882;2023-12-20T07:56:14;101420.81;;;13.51;100.00
78016;BME280;67223;51.102;5.882;2023-12-20T07:58:39;101422.19;;;13.45;100.00
78016;BME280;67223;51.102;5.882;2023-12-20T08:01:04;101423.81;;;13.36;100.00
78016;BME280;67223;51.102;5.882;2023-12-20T08:03:30;101411.31;;;13.47;100.00
78016;BME280;67223;51.102;5.882;2023-12-20T08:05:55;101424.31;;;13.62;100.00
78016;BME280;67223;51.102;5.882;2023-12-20T08:08:21;101416.13;;;13.64;100.00
78016;BME280;67223;51.102;5.882;2023-12-20T08:10:47;101414.81;;;13.58;100.00
78016;BME280;67223;51.102;5.882;2023-12-20T08:13:12;101416.25;;;13.62;100.00
78016;BME280;67223;51.102;5.882;2023-12-20T08:15:37;101436.56;;;13.01;100.00
78016;BME280;67223;51.102;5.882;2023-12-20T08:18:03;101429.34;;;13.24;100.00
78016;BME280;67223;51.102;5.882;2023-12-20T08:20:29;101424.63;;;13.48;100.00
78016;BME280;67223;51.102;5.882;2023-12-20T08:22:54;101434.31;;;13.60;100.00
78016;BME280;67223;51.102;5.882;2023-12-20T08:25:20;101440.53;;;13.61;100.00
78016;BME280;67223;51.102;5.882;2023-12-20T08:27:45;101454.31;;;13.56;100.00
78016;BME280;67223;51.102;5.882;2023-12-20T08:30:12;101465.44;;;13.52;100.00
78016;BME280;67223;51.102;5.882;2023-12-20T08:32:38;101458.69;;;13.68;100.00
78016;BME280;67223;51.102;5.882;2023-12-20T08:35:03;101457.53;;;13.50;100.00
78016;BME280;67223;51.102;5.882;2023-12-20T08:37:29;101452.69;;;13.65;100.00
78016;BME280;67223;51.102;5.882;2023-12-20T08:39:55;101453.34;;;13.57;100.00
78016;BME280;67223;51.102;5.882;2023-12-20T08:42:21;101442.97;;;13.64;100.00
78016;BME280;67223;51.102;5.882;2023-12-20T08:44:46;101460.91;;;13.63;100.00
78016;BME280;67223;51.102;5.882;2023-12-20T08:47:11;101458.75;;;13.46;100.00
78016;BME280;67223;51.102;5.882;2023-12-20T08:49:39;101464.28;;;13.65;100.00
78016;BME280;67223;51.102;5.882;2023-12-20T08:52:04;101459.97;;;13.53;100.00
78016;BME280;67223;51.102;5.882;2023-12-20T08:54:30;101460.47;;;13.47;100.00
78016;BME280;67223;51.102;5.882;2023-12-20T08:56:55;101448.44;;;13.62;100.00
78016;BME280;67223;51.102;5.882;2023-12-20T08:59:21;101468.47;;;13.58;100.00
78016;BME280;67223;51.102;5.882;2023-12-20T09:01:46;101459.56;;;13.58;100.00
78016;BME280;67223;51.102;5.882;2023-12-20T09:04:13;101448.44;;;13.62;100.00
78016;BME280;67223;51.102;5.882;2023-12-20T09:06:38;101443.28;;;13.50;100.00
78016;BME280;67223;51.102;5.882;2023-12-20T09:09:03;101443.25;;;13.29;100.00
78016;BME280;67223;51.102;5.882;2023-12-20T09:11:29;101428.88;;;13.08;100.00
78016;BME280;67223;51.102;5.882;2023-12-20T09:13:54;101432.75;;;13.58;100.00
78016;BME280;67223;51.102;5.882;2023-12-20T09:16:20;101434.84;;;13.54;100.00
78016;BME280;67223;51.102;5.882;2023-12-20T09:18:45;101436.97;;;13.60;100.00
78016;BME280;67223;51.102;5.882;2023-12-20T09:21:11;101425.72;;;13.46;100.00
78016;BME280;67223;51.102;5.882;2023-12-20T09:23:38;101426.66;;;13.76;100.00
78016;BME280;67223;51.102;5.882;2023-12-20T09:26:04;101433.72;;;13.77;100.00
78016;BME280;67223;51.102;5.882;2023-12-20T09:28:29;101432.94;;;13.66;100.00
78016;BME280;67223;51.102;5.882;2023-12-20T09:30:55;101439.97;;;13.78;100.00
78016;BME280;67223;51.102;5.882;2023-12-20T09:33:20;101436.47;;;13.87;100.00
78016;BME280;67223;51.102;5.882;2023-12-20T09:35:45;101439.97;;;13.99;100.00
78016;BME280;67223;51.102;5.882;2023-12-20T09:38:11;101443.94;;;14.04;100.00
78016;BME280;67223;51.102;5.882;2023-12-20T09:40:41;101459.91;;;14.06;100.00
78016;BME280;67223;51.102;5.882;2023-12-20T09:43:19;101451.31;;;13.70;100.00
78016;BME280;67223;51.102;5.882;2023-12-20T09:45:46;101459.31;;;13.82;100.00
78016;BME280;67223;51.102;5.882;2023-12-20T09:48:12;101452.88;;;13.84;100.00
78016;BME280;67223;51.102;5.882;2023-12-20T09:50:40;101449.09;;;13.75;100.00
78016;BME280;67223;51.102;5.882;2023-12-20T09:53:08;101465.56;;;13.82;100.00
78016;BME280;67223;51.102;5.882;2023-12-20T09:55:36;101459.84;;;13.75;100.00
78016;BME280;67223;51.102;5.882;2023-12-20T09:58:02;101450.59;;;13.48;100.00
78016;BME280;67223;51.102;5.882;2023-12-20T10:00:27;101454.47;;;13.75;100.00
78016;BME280;67223;51.102;5.882;2023-12-20T10:02:58;101453.50;;;13.76;100.00
78016;BME280;67223;51.102;5.882;2023-12-20T10:05:31;101467.81;;;13.66;100.00
78016;BME280;67223;51.102;5.882;2023-12-20T10:07:57;101455.25;;;13.66;100.00
78016;BME280;67223;51.102;5.882;2023-12-20T10:10:23;101455.31;;;13.76;100.00
78016;BME280;67223;51.102;5.882;2023-12-20T10:13:06;101454.31;;;13.56;100.00
78016;BME280;67223;51.102;5.882;2023-12-20T10:15:33;101453.50;;;13.76;100.00
78016;BME280;67223;51.102;5.882;2023-12-20T10:17:58;101442.06;;;13.74;100.00
78016;BME280;67223;51.102;5.882;2023-12-20T10:20:24;101449.97;;;13.76;100.00
78016;BME280;67223;51.102;5.882;2023-12-20T10:22:49;101440.66;;;13.80;100.00
78016;BME280;67223;51.102;5.882;2023-12-20T10:25:15;101440.53;;;13.82;100.00
78016;BME280;67223;51.102;5.882;2023-12-20T10:27:40;101441.78;;;13.77;100.00
78016;BME280;67223;51.102;5.882;2023-12-20T10:30:06;101445.38;;;13.67;100.00
78016;BME280;67223;51.102;5.882;2023-12-20T10:32:32;101444.59;;;13.76;100.00
78016;BME280;67223;51.102;5.882;2023-12-20T10:34:57;101451.94;;;13.74;100.00
78016;BME280;67223;51.102;5.882;2023-12-20T10:37:24;101436.22;;;13.69;100.00
78016;BME280;67223;51.102;5.882;2023-12-20T10:39:51;101448.25;;;13.75;100.00
78016;BME280;67223;51.102;5.882;2023-12-20T10:42:19;101434.53;;;13.68;100.00
78016;BME280;67223;51.102;5.882;2023-12-20T10:44:46;101428.88;;;13.71;100.00
78016;BME280;67223;51.102;5.882;2023-12-20T10:47:13;101432.16;;;13.75;100.00
78016;BME280;67223;51.102;5.882;2023-12-20T10:49:39;101430.47;;;13.74;100.00
78016;BME280;67223;51.102;5.882;2023-12-20T10:52:05;101436.69;;;13.74;100.00
78016;BME280;67223;51.102;5.882;2023-12-20T10:54:31;101444.75;;;13.74;100.00
78016;BME280;67223;51.102;5.882;2023-12-20T10:56:58;101437.25;;;13.57;100.00
78016;BME280;67223;51.102;5.882;2023-12-20T10:59:24;101437.66;;;13.73;100.00
78016;BME280;67223;51.102;5.882;2023-12-20T11:01:50;101432.16;;;13.75;100.00
78016;BME280;67223;51.102;5.882;2023-12-20T11:04:23;101420.59;;;13.74;100.00
78016;BME280;67223;51.102;5.882;2023-12-20T11:06:57;101413.16;;;13.67;100.00
78016;BME280;67223;51.102;5.882;2023-12-20T11:09:30;101414.22;;;13.75;100.00
78016;BME280;67223;51.102;5.882;2023-12-20T11:14:55;101411.06;;;13.70;100.00
78016;BME280;67223;51.102;5.882;2023-12-20T11:17:22;101405.16;;;13.56;100.00
78016;BME280;67223;51.102;5.882;2023-12-20T11:22:17;101407.16;;;13.54;100.00
78016;BME280;67223;51.102;5.882;2023-12-20T11:24:44;101401.19;;;13.50;100.00
78016;BME280;67223;51.102;5.882;2023-12-20T11:27:12;101399.22;;;13.52;100.00
78016;BME280;67223;51.102;5.882;2023-12-20T11:29:38;101404.78;;;13.60;100.00
78016;BME280;67223;51.102;5.882;2023-12-20T11:35:01;101402.94;;;13.61;100.00
78016;BME280;67223;51.102;5.882;2023-12-20T11:37:31;101397.84;;;13.58;100.00
78016;BME280;67223;51.102;5.882;2023-12-20T11:40:06;101396.06;;;13.47;100.00
78016;BME280;67223;51.102;5.882;2023-12-20T11:42:39;101393.19;;;13.39;100.00
78016;BME280;67223;51.102;5.882;2023-12-20T11:45:08;101387.69;;;13.61;100.00
78016;BME280;67223;51.102;5.882;2023-12-20T11:47:33;101383.66;;;13.67;100.00
78016;BME280;67223;51.102;5.882;2023-12-20T11:50:00;101386.22;;;13.68;100.00
78016;BME280;67223;51.102;5.882;2023-12-20T11:52:28;101385.16;;;13.60;100.00
78016;BME280;67223;51.102;5.882;2023-12-20T11:54:54;101380.97;;;13.67;100.00
78016;BME280;67223;51.102;5.882;2023-12-20T11:57:19;101372.34;;;13.63;100.00
78016;BME280;67223;51.102;5.882;2023-12-20T11:59:45;101373.03;;;13.65;100.00
78016;BME280;67223;51.102;5.882;2023-12-20T12:02:11;101354.84;;;13.69;100.00
78016;BME280;67223;51.102;5.882;2023-12-20T12:04:37;101354.59;;;13.51;100.00
78016;BME280;67223;51.102;5.882;2023-12-20T12:07:02;101360.41;;;13.56;100.00
78016;BME280;67223;51.102;5.882;2023-12-20T12:09:28;101356.81;;;13.46;100.00
78016;BME280;67223;51.102;5.882;2023-12-20T12:11:54;101360.91;;;13.50;100.00
78016;BME280;67223;51.102;5.882;2023-12-20T12:14:20;101360.00;;;13.61;100.00
78016;BME280;67223;51.102;5.882;2023-12-20T12:16:46;101354.25;;;13.65;100.00
78016;BME280;67223;51.102;5.882;2023-12-20T12:19:24;101345.84;;;13.49;100.00
78016;BME280;67223;51.102;5.882;2023-12-20T12:21:50;101348.06;;;13.44;100.00
78016;BME280;67223;51.102;5.882;2023-12-20T12:24:20;101341.56;;;13.47;100.00
78016;BME280;67223;51.102;5.882;2023-12-20T12:26:50;101340.06;;;13.33;100.00
78016;BME280;67223;51.102;5.882;2023-12-20T12:29:16;101331.88;;;13.55;100.00
78016;BME280;67223;51.102;5.882;2023-12-20T12:31:41;101334.25;;;13.49;100.00
78016;BME280;67223;51.102;5.882;2023-12-20T12:34:07;101320.03;;;13.58;100.00
78016;BME280;67223;51.102;5.882;2023-12-20T12:36:34;101326.47;;;13.25;100.00
78016;BME280;67223;51.102;5.882;2023-12-20T12:39:02;101320.31;;;13.34;100.00
78016;BME280;67223;51.102;5.882;2023-12-20T12:41:30;101320.94;;;13.47;100.00
78016;BME280;67223;51.102;5.882;2023-12-20T12:43:55;101321.69;;;13.49;100.00
78016;BME280;67223;51.102;5.882;2023-12-20T12:46:21;101303.38;;;12.70;100.00
78016;BME280;67223;51.102;5.882;2023-12-20T12:48:46;101310.88;;;12.87;100.00
78016;BME280;67223;51.102;5.882;2023-12-20T12:51:12;101314.34;;;13.30;100.00